Terminal Aerodrome Forecast
Issued by NWS

Home | Current Version | Previous Version | Text Only | Print | Product List | Glossary On
Versions: 1 2 3 4 5 6 7 8 9 10 11 12
000
FTUS46 KHNX 201735
TAFBFL
TAF
KBFL 201735Z 2018/2118 31006KT P6SM FEW150
     FM210600 33012G20KT P6SM SCT050
     FM210900 33007KT P6SM BKN030=

USA.gov is the U.S. government's official web portal to all federal, state and local government web resources and services.